createdAt,value
2023-05-11T00:01:50.402Z,47.77
2023-05-11T00:04:53.297Z,47.64
2023-05-11T00:07:55.141Z,47.93
2023-05-11T00:10:56.908Z,47.94
2023-05-11T00:13:58.583Z,48.73
2023-05-11T00:17:00.305Z,48.63
2023-05-11T00:20:02.685Z,49.39
2023-05-11T00:23:04.376Z,49.33
2023-05-11T00:26:06.126Z,49.40
2023-05-11T00:29:07.772Z,49.18
2023-05-11T00:32:09.831Z,49.37
2023-05-11T00:35:11.829Z,49.31
2023-05-11T00:38:13.538Z,49.36
2023-05-11T00:41:15.436Z,49.21
2023-05-11T00:44:17.221Z,49.35
2023-05-11T00:47:19.426Z,49.30
2023-05-11T00:50:21.295Z,49.18
2023-05-11T00:53:23.224Z,49.40
2023-05-11T00:56:25.146Z,49.29
2023-05-11T00:59:26.980Z,49.17
2023-05-11T01:02:29.132Z,48.93
2023-05-11T01:05:41.502Z,48.88
2023-05-11T01:08:46.483Z,48.88
2023-05-11T01:11:59.735Z,48.80
2023-05-11T01:15:12.002Z,49.13
2023-05-11T01:18:26.803Z,49.65
2023-05-11T01:21:32.734Z,49.65
2023-05-11T01:25:00.642Z,49.95
2023-05-11T01:28:11.695Z,49.77
2023-05-11T01:31:15.443Z,49.98
2023-05-11T01:34:21.811Z,49.98
2023-05-11T01:37:26.139Z,50.07
2023-05-11T01:40:32.080Z,50.24
2023-05-11T01:43:36.209Z,50.40
2023-05-11T01:46:39.357Z,50.49
2023-05-11T01:49:44.049Z,50.84
2023-05-11T01:52:47.394Z,51.13
2023-05-11T01:55:51.092Z,51.14
2023-05-11T01:58:54.809Z,51.57
2023-05-11T02:01:58.185Z,51.58
2023-05-11T02:05:01.321Z,51.66
2023-05-11T02:08:05.485Z,51.80
2023-05-11T02:11:09.806Z,52.21
2023-05-11T02:14:12.366Z,52.55
2023-05-11T02:17:16.106Z,52.52
2023-05-11T02:20:19.945Z,52.10
2023-05-11T02:23:23.181Z,52.71
2023-05-11T02:26:25.233Z,52.80
2023-05-11T02:29:27.364Z,53.00
2023-05-11T02:32:32.074Z,53.02
2023-05-11T02:35:40.265Z,53.05
2023-05-11T02:38:45.476Z,53.42
2023-05-11T02:41:54.718Z,53.65
2023-05-11T02:45:01.910Z,53.44
2023-05-11T02:48:15.333Z,53.61
2023-05-11T02:51:21.610Z,53.69
2023-05-11T02:54:26.679Z,53.68
2023-05-11T02:57:28.898Z,53.68
2023-05-11T03:00:32.108Z,53.63
2023-05-11T03:03:34.086Z,53.88
2023-05-11T03:06:36.836Z,53.94
2023-05-11T03:09:39.509Z,54.05
2023-05-11T03:12:41.949Z,54.11
2023-05-11T03:15:44.093Z,53.72
2023-05-11T03:18:48.156Z,53.89
2023-05-11T03:21:52.084Z,54.25
2023-05-11T03:24:54.109Z,54.41
2023-05-11T03:27:58.462Z,54.50
2023-05-11T03:31:00.538Z,54.68
2023-05-11T03:34:02.567Z,54.77
2023-05-11T03:37:09.835Z,54.90
2023-05-11T03:40:14.344Z,54.99
2023-05-11T03:43:29.537Z,55.27
2023-05-11T03:46:32.563Z,55.32
2023-05-11T03:49:37.495Z,55.63
2023-05-11T03:52:39.971Z,55.46
2023-05-11T03:55:41.938Z,55.63
2023-05-11T03:58:44.147Z,55.55
2023-05-11T04:01:46.496Z,55.73
2023-05-11T04:04:49.066Z,56.08
2023-05-11T04:07:51.374Z,55.43
2023-05-11T04:10:53.471Z,55.58
2023-05-11T04:13:55.193Z,55.19
2023-05-11T04:16:56.938Z,55.28
2023-05-11T04:19:58.778Z,55.02
2023-05-11T04:23:00.726Z,54.90
2023-05-11T04:26:02.447Z,54.96
2023-05-11T04:29:04.455Z,54.97
2023-05-11T04:32:06.360Z,54.71
2023-05-11T04:35:08.466Z,54.66
2023-05-11T04:38:12.315Z,54.59
2023-05-11T04:41:14.387Z,54.73
2023-05-11T04:44:16.674Z,55.03
2023-05-11T04:47:18.400Z,54.64
2023-05-11T04:50:21.620Z,54.56
2023-05-11T04:53:23.492Z,54.71
2023-05-11T04:56:25.768Z,54.60
2023-05-11T04:59:27.599Z,54.52
2023-05-11T05:02:29.411Z,54.33
2023-05-11T05:05:31.288Z,54.32
2023-05-11T05:08:33.008Z,54.44
2023-05-11T05:11:34.825Z,54.33
2023-05-11T05:14:36.638Z,54.30
2023-05-11T05:17:39.734Z,54.22
2023-05-11T05:20:41.656Z,54.35
2023-05-11T05:23:43.604Z,54.21
2023-05-11T05:26:46.073Z,54.46
2023-05-11T05:29:48.193Z,54.61
2023-05-11T05:32:50.176Z,54.72
2023-05-11T05:35:51.896Z,54.22
2023-05-11T05:38:53.934Z,54.30
2023-05-11T05:41:55.972Z,54.53
2023-05-11T05:44:58.720Z,54.19
2023-05-11T05:48:00.758Z,54.15
2023-05-11T05:51:02.807Z,53.58
2023-05-11T05:54:04.719Z,53.61
2023-05-11T05:57:06.747Z,52.62
2023-05-11T06:00:09.169Z,52.05
2023-05-11T06:03:14.718Z,52.28
2023-05-11T06:06:16.794Z,51.80
2023-05-11T06:09:18.564Z,51.82
2023-05-11T06:12:20.287Z,51.79
2023-05-11T06:15:24.534Z,52.11
2023-05-11T06:18:31.285Z,51.93
2023-05-11T06:21:33.279Z,51.16
2023-05-11T06:24:35.011Z,51.20
2023-05-11T06:27:36.900Z,50.59
2023-05-11T06:30:39.249Z,50.52
2023-05-11T06:33:42.384Z,50.84
2023-05-11T06:36:49.352Z,51.60
2023-05-11T06:39:51.145Z,51.48
2023-05-11T06:42:53.149Z,51.41
2023-05-11T06:45:54.872Z,51.71
2023-05-11T06:48:56.594Z,52.22
2023-05-11T06:51:58.917Z,52.45
2023-05-11T06:55:00.984Z,52.16
2023-05-11T06:58:02.674Z,51.59
2023-05-11T07:01:07.508Z,51.21
2023-05-11T07:04:09.485Z,50.76
2023-05-11T07:07:11.642Z,50.83
2023-05-11T07:10:13.413Z,50.80
2023-05-11T07:13:15.172Z,50.41
2023-05-11T07:16:17.031Z,49.82
2023-05-11T07:19:18.823Z,49.96
2023-05-11T07:22:21.134Z,49.09
2023-05-11T07:25:22.758Z,49.29
2023-05-11T07:28:24.651Z,49.35
2023-05-11T07:31:26.792Z,49.10
2023-05-11T07:34:28.600Z,47.62
2023-05-11T07:37:30.445Z,47.27
2023-05-11T07:40:32.181Z,46.53
2023-05-11T07:43:34.008Z,46.36
2023-05-11T07:46:35.963Z,46.31
2023-05-11T07:49:43.613Z,45.84
2023-05-11T07:52:45.995Z,46.53
2023-05-11T07:55:47.819Z,47.33
2023-05-11T07:58:49.688Z,46.64
2023-05-11T08:01:51.708Z,47.15
2023-05-11T08:04:53.503Z,47.43
2023-05-11T08:07:55.250Z,46.38
2023-05-11T08:10:57.118Z,46.08
2023-05-11T08:13:58.943Z,45.59
2023-05-11T08:17:00.738Z,45.41
2023-05-11T08:20:06.722Z,45.46
2023-05-11T08:23:10.197Z,45.62
2023-05-11T08:26:11.941Z,45.14
2023-05-11T08:29:13.732Z,45.48
2023-05-11T08:32:15.692Z,44.77
2023-05-11T08:35:17.759Z,44.87
2023-05-11T08:38:19.589Z,45.02
2023-05-11T08:41:22.362Z,44.12
2023-05-11T08:44:25.935Z,43.83
2023-05-11T08:47:28.473Z,43.86
2023-05-11T08:50:30.522Z,43.73
2023-05-11T08:53:32.729Z,43.36
2023-05-11T08:56:36.740Z,43.71
2023-05-11T08:59:40.978Z,43.30
2023-05-11T09:02:43.683Z,43.03
2023-05-11T09:05:46.446Z,43.08
2023-05-11T09:08:48.753Z,43.16
2023-05-11T09:11:51.227Z,41.98
2023-05-11T09:14:53.103Z,42.28
2023-05-11T09:17:58.135Z,41.74
2023-05-11T09:21:03.188Z,41.74
2023-05-11T09:24:05.587Z,41.17
2023-05-11T09:27:08.779Z,40.72
2023-05-11T09:30:23.265Z,40.29
2023-05-11T09:33:25.802Z,39.75
2023-05-11T09:36:28.989Z,40.06
2023-05-11T09:39:39.871Z,40.47
2023-05-11T09:42:44.061Z,39.79
2023-05-11T09:45:47.825Z,39.70
2023-05-11T09:48:59.678Z,38.78
2023-05-11T09:52:01.568Z,38.66
2023-05-11T09:55:09.447Z,39.16
2023-05-11T09:58:11.927Z,39.43
2023-05-11T10:01:16.105Z,38.79
2023-05-11T10:04:23.690Z,39.03
2023-05-11T10:07:33.221Z,37.54
2023-05-11T10:10:37.392Z,36.94
2023-05-11T10:13:40.002Z,37.54
2023-05-11T10:16:43.231Z,37.40
2023-05-11T10:19:46.906Z,36.89
2023-05-11T10:22:59.058Z,37.17
2023-05-11T10:26:01.318Z,37.01
2023-05-11T10:29:03.777Z,37.64
2023-05-11T10:32:07.407Z,37.86
2023-05-11T10:35:09.514Z,38.39
2023-05-11T10:38:12.884Z,39.09
2023-05-11T10:41:31.497Z,38.84
2023-05-11T10:45:10.409Z,38.76
2023-05-11T10:48:49.297Z,38.43
2023-05-11T10:52:12.612Z,39.45
2023-05-11T10:55:38.500Z,38.59
2023-05-11T10:59:01.388Z,39.12
2023-05-11T11:02:03.551Z,40.06
2023-05-11T11:05:09.593Z,39.10
2023-05-11T11:08:11.864Z,39.34
2023-05-11T11:11:32.002Z,38.91
2023-05-11T11:14:58.103Z,38.96
2023-05-11T11:18:23.077Z,37.46
2023-05-11T11:21:42.032Z,37.44
2023-05-11T11:24:45.152Z,36.71
2023-05-11T11:27:54.469Z,35.25
2023-05-11T11:31:27.472Z,35.70
2023-05-11T11:34:29.393Z,35.54
2023-05-11T11:38:04.070Z,35.59
2023-05-11T11:41:08.571Z,34.67
2023-05-11T11:44:22.430Z,33.68
2023-05-11T11:47:26.369Z,33.87
2023-05-11T11:50:28.317Z,33.21
2023-05-11T11:53:36.456Z,33.69
2023-05-11T11:56:40.487Z,31.71
2023-05-11T11:59:46.712Z,31.69
2023-05-11T12:02:49.336Z,30.85
2023-05-11T12:05:59.001Z,30.91
2023-05-11T12:09:00.934Z,30.74
2023-05-11T12:12:03.361Z,29.52
2023-05-11T12:15:06.696Z,30.45
2023-05-11T12:18:20.512Z,30.49
2023-05-11T12:21:27.124Z,30.19
2023-05-11T12:24:29.391Z,30.40
2023-05-11T12:27:31.485Z,30.18
2023-05-11T12:30:33.997Z,30.48
2023-05-11T12:33:45.245Z,31.65
2023-05-11T12:36:49.030Z,30.42
2023-05-11T12:39:55.423Z,29.95
2023-05-11T12:42:58.723Z,29.45
2023-05-11T12:46:00.764Z,30.22
2023-05-11T12:49:02.648Z,31.26
2023-05-11T12:52:07.348Z,31.10
2023-05-11T12:55:11.261Z,30.47
2023-05-11T12:58:15.514Z,30.81
2023-05-11T13:01:23.830Z,30.42
2023-05-11T13:04:29.854Z,30.63
2023-05-11T13:07:31.697Z,30.53
2023-05-11T13:10:33.688Z,30.59
2023-05-11T13:13:35.443Z,30.34
2023-05-11T13:16:37.183Z,30.87
2023-05-11T13:19:39.239Z,31.37
2023-05-11T13:22:41.358Z,31.36
2023-05-11T13:25:47.628Z,31.73
2023-05-11T13:28:58.379Z,32.63
2023-05-11T13:32:08.202Z,32.13
2023-05-11T13:35:10.046Z,32.18
2023-05-11T13:38:12.618Z,32.60
2023-05-11T13:41:14.434Z,33.24
2023-05-11T13:44:16.200Z,33.06
2023-05-11T13:47:17.990Z,32.97
2023-05-11T13:50:20.029Z,33.26
2023-05-11T13:53:21.696Z,32.94
2023-05-11T13:56:23.499Z,33.28
2023-05-11T13:59:25.502Z,33.19
2023-05-11T14:02:27.442Z,33.20
2023-05-11T14:05:29.565Z,33.20
2023-05-11T14:08:31.327Z,32.81
2023-05-11T14:11:33.241Z,33.01
2023-05-11T14:14:35.155Z,33.18
2023-05-11T14:17:37.766Z,33.77
2023-05-11T14:20:42.865Z,34.34
2023-05-11T14:23:57.618Z,34.34
2023-05-11T14:27:04.420Z,34.04
2023-05-11T14:30:06.763Z,34.35
2023-05-11T14:33:08.492Z,34.34
2023-05-11T14:36:10.389Z,33.89
2023-05-11T14:39:12.085Z,33.85
2023-05-11T14:42:14.459Z,33.20
2023-05-11T14:45:16.321Z,33.32
2023-05-11T14:48:18.773Z,33.31
2023-05-11T14:51:20.520Z,33.71
2023-05-11T14:54:22.212Z,33.96
2023-05-11T14:57:23.994Z,34.96
2023-05-11T15:00:25.951Z,34.00
2023-05-11T15:03:27.796Z,34.00
2023-05-11T15:06:29.740Z,33.58
2023-05-11T15:09:31.385Z,33.72
2023-05-11T15:12:33.177Z,33.98
2023-05-11T15:15:35.542Z,34.10
2023-05-11T15:18:37.270Z,33.93
2023-05-11T15:21:39.005Z,33.91
2023-05-11T15:24:40.748Z,34.42
2023-05-11T15:27:42.448Z,34.11
2023-05-11T15:30:44.368Z,34.17
2023-05-11T15:33:46.093Z,34.22
2023-05-11T15:36:49.163Z,34.13
2023-05-11T15:39:51.058Z,34.10
2023-05-11T15:42:52.756Z,33.56
2023-05-11T15:45:54.760Z,34.53
2023-05-11T15:48:59.055Z,34.16
2023-05-11T15:52:01.711Z,34.43
2023-05-11T15:55:04.579Z,34.65
2023-05-11T15:58:07.712Z,34.75
2023-05-11T16:01:09.463Z,34.48
2023-05-11T16:04:11.378Z,34.31
2023-05-11T16:07:13.226Z,34.14
2023-05-11T16:10:14.870Z,34.21
2023-05-11T16:13:16.680Z,33.88
2023-05-11T16:16:18.471Z,33.87
2023-05-11T16:19:20.216Z,33.77
2023-05-11T16:22:21.970Z,33.81
2023-05-11T16:25:23.678Z,34.22
2023-05-11T16:28:25.410Z,34.07
2023-05-11T16:31:27.129Z,34.02
2023-05-11T16:34:29.046Z,33.92
2023-05-11T16:37:30.726Z,34.01
2023-05-11T16:40:32.391Z,34.30
2023-05-11T16:43:34.260Z,34.21
2023-05-11T16:46:36.072Z,34.36
2023-05-11T16:49:37.823Z,34.50
2023-05-11T16:52:40.807Z,34.51
2023-05-11T16:55:42.709Z,34.64
2023-05-11T16:58:44.546Z,35.03
2023-05-11T17:01:46.384Z,35.04
2023-05-11T17:04:48.289Z,35.28
2023-05-11T17:07:50.099Z,35.37
2023-05-11T17:10:51.912Z,35.46
2023-05-11T17:13:54.684Z,35.64
2023-05-11T17:16:56.347Z,35.76
2023-05-11T17:19:58.189Z,36.00
2023-05-11T17:22:59.940Z,36.00
2023-05-11T17:26:11.872Z,35.94
2023-05-11T17:29:14.453Z,36.07
2023-05-11T17:32:16.970Z,36.16
2023-05-11T17:35:19.022Z,36.25
2023-05-11T17:38:20.991Z,36.27
2023-05-11T17:41:22.698Z,36.52
2023-05-11T17:44:24.525Z,36.59
2023-05-11T17:47:26.354Z,36.66
2023-05-11T17:50:28.136Z,36.77
2023-05-11T17:53:30.070Z,36.89
2023-05-11T17:56:32.171Z,36.99
2023-05-11T17:59:33.782Z,36.94
2023-05-11T18:02:35.588Z,36.91
2023-05-11T18:05:48.415Z,37.27
2023-05-11T18:08:51.345Z,37.55
2023-05-11T18:11:53.002Z,37.70
2023-05-11T18:14:54.832Z,37.91
2023-05-11T18:17:56.894Z,37.89
2023-05-11T18:21:03.272Z,38.21
2023-05-11T18:24:05.579Z,38.01
2023-05-11T18:27:07.346Z,38.63
2023-05-11T18:30:09.505Z,38.89
2023-05-11T18:33:11.625Z,39.59
2023-05-11T18:36:14.437Z,39.93
2023-05-11T18:39:16.210Z,39.85
2023-05-11T18:42:18.483Z,40.40
2023-05-11T18:45:20.218Z,40.78
2023-05-11T18:48:22.023Z,40.67
2023-05-11T18:51:24.672Z,41.26
2023-05-11T18:54:26.436Z,41.40
2023-05-11T18:57:28.779Z,41.82
2023-05-11T19:00:36.241Z,41.98
2023-05-11T19:03:38.063Z,42.41
2023-05-11T19:06:39.824Z,42.66
2023-05-11T19:09:41.599Z,42.72
2023-05-11T19:12:43.358Z,42.89
2023-05-11T19:16:07.209Z,42.48
2023-05-11T19:19:09.148Z,42.42
2023-05-11T19:22:11.898Z,42.17
2023-05-11T19:25:13.858Z,42.73
2023-05-11T19:28:16.850Z,43.30
2023-05-11T19:31:18.553Z,43.33
2023-05-11T19:34:20.366Z,43.07
2023-05-11T19:37:22.266Z,43.31
2023-05-11T19:43:29.221Z,42.90
2023-05-11T19:46:31.156Z,43.65
2023-05-11T19:49:32.915Z,42.86
2023-05-11T19:52:35.968Z,43.31
2023-05-11T19:55:39.104Z,43.37
2023-05-11T19:58:41.134Z,43.76
2023-05-11T20:01:43.045Z,43.94
2023-05-11T20:04:45.912Z,44.03
2023-05-11T20:07:47.590Z,44.39
2023-05-11T20:10:49.317Z,44.22
2023-05-11T20:13:53.187Z,44.22
2023-05-11T20:17:08.889Z,44.39
2023-05-11T20:20:11.381Z,44.59
2023-05-11T20:23:13.862Z,44.42
2023-05-11T20:26:15.783Z,44.37
2023-05-11T20:29:18.420Z,44.20
2023-05-11T20:32:20.257Z,43.93
2023-05-11T20:35:22.417Z,43.84
2023-05-11T20:38:24.207Z,43.92
2023-05-11T20:41:28.348Z,43.87
2023-05-11T20:44:30.076Z,43.68
2023-05-11T20:47:31.832Z,44.05
2023-05-11T20:50:33.599Z,44.00
2023-05-11T20:53:35.315Z,44.06
2023-05-11T20:56:37.031Z,44.09
2023-05-11T21:02:44.397Z,43.79
2023-05-11T21:05:46.308Z,43.88
2023-05-11T21:08:48.839Z,43.99
2023-05-11T21:11:50.548Z,44.15
2023-05-11T21:14:52.900Z,43.96
2023-05-11T21:17:56.054Z,44.16
2023-05-11T21:20:58.548Z,44.23
2023-05-11T21:24:00.620Z,44.13
2023-05-11T21:27:02.889Z,44.03
2023-05-11T21:30:04.973Z,44.10
2023-05-11T21:33:06.690Z,43.96
2023-05-11T21:36:08.615Z,44.34
2023-05-11T21:39:12.425Z,44.51
2023-05-11T21:42:14.625Z,44.14
2023-05-11T21:45:19.111Z,44.19
2023-05-11T21:48:21.506Z,44.04
2023-05-11T21:51:23.242Z,44.36
2023-05-11T21:54:25.003Z,44.19
2023-05-11T21:57:26.664Z,44.39
2023-05-11T22:00:28.422Z,44.29
2023-05-11T22:03:31.031Z,44.28
2023-05-11T22:06:32.772Z,44.30
2023-05-11T22:09:34.479Z,44.31
2023-05-11T22:12:36.292Z,44.22
2023-05-11T22:15:37.984Z,44.31
2023-05-11T22:18:39.925Z,44.37
2023-05-11T22:21:41.671Z,44.34
2023-05-11T22:24:43.560Z,44.60
2023-05-11T22:27:45.274Z,44.39
2023-05-11T22:30:47.031Z,44.40
2023-05-11T22:33:48.717Z,44.44
2023-05-11T22:36:50.380Z,44.52
2023-05-11T22:39:53.574Z,44.60
2023-05-11T22:42:55.317Z,44.44
2023-05-11T22:45:56.969Z,44.50
2023-05-11T22:48:58.743Z,44.64
2023-05-11T22:52:00.686Z,44.60
2023-05-11T22:55:03.390Z,44.47
2023-05-11T22:58:05.094Z,44.68
2023-05-11T23:01:06.881Z,44.60
2023-05-11T23:04:09.032Z,44.68
2023-05-11T23:07:12.086Z,44.95
2023-05-11T23:10:13.985Z,44.94
2023-05-11T23:13:15.676Z,44.91
2023-05-11T23:16:18.589Z,44.87
2023-05-11T23:19:20.522Z,44.72
2023-05-11T23:22:22.199Z,44.79
2023-05-11T23:25:25.277Z,44.82
2023-05-11T23:28:26.968Z,45.12
2023-05-11T23:31:28.864Z,45.12
2023-05-11T23:34:30.569Z,45.53
2023-05-11T23:37:32.479Z,45.24
2023-05-11T23:40:34.206Z,45.32
2023-05-11T23:43:36.626Z,45.28
2023-05-11T23:46:38.386Z,45.22
2023-05-11T23:49:40.383Z,45.09
2023-05-11T23:52:42.202Z,45.38
2023-05-11T23:55:47.360Z,46.05
2023-05-11T23:58:49.856Z,46.23
